createdAt,value
2023-11-02T00:00:05.349Z,0.00
2023-11-02T00:01:05.345Z,0.00
2023-11-02T00:02:05.313Z,0.00
2023-11-02T00:03:05.425Z,0.00
2023-11-02T00:04:05.316Z,0.00
2023-11-02T00:05:05.288Z,0.00
2023-11-02T00:06:05.334Z,0.00
2023-11-02T00:07:05.317Z,0.00
2023-11-02T00:08:05.249Z,0.00
2023-11-02T00:09:05.261Z,0.00
2023-11-02T00:10:05.238Z,0.00
2023-11-02T00:11:05.232Z,0.00
2023-11-02T00:12:05.320Z,0.00
2023-11-02T00:13:05.210Z,0.00
2023-11-02T00:14:05.187Z,0.00
2023-11-02T00:15:05.212Z,0.00
2023-11-02T00:16:05.163Z,0.00
2023-11-02T00:17:05.155Z,0.00
2023-11-02T00:18:05.203Z,0.00
2023-11-02T00:19:05.163Z,0.00
2023-11-02T00:20:05.132Z,0.00
2023-11-02T00:21:05.162Z,0.00
2023-11-02T00:22:05.150Z,0.00
2023-11-02T00:23:05.182Z,0.00
2023-11-02T00:24:05.116Z,0.00
2023-11-02T00:25:05.064Z,0.00
2023-11-02T00:26:05.077Z,0.00
2023-11-02T00:27:05.065Z,0.00
2023-11-02T00:28:05.051Z,0.00
2023-11-02T00:29:05.052Z,0.00
2023-11-02T00:30:05.074Z,0.00
2023-11-02T00:31:05.028Z,0.00
2023-11-02T00:32:04.994Z,0.00
2023-11-02T00:33:05.083Z,0.00
2023-11-02T00:34:05.041Z,0.00
2023-11-02T00:35:04.975Z,0.00
2023-11-02T00:36:04.981Z,0.00
2023-11-02T00:37:04.945Z,0.00
2023-11-02T00:38:04.928Z,0.00
2023-11-02T00:39:04.953Z,0.00
2023-11-02T00:40:04.925Z,0.00
2023-11-02T00:41:04.906Z,0.00
2023-11-02T00:42:04.919Z,0.00
2023-11-02T00:43:04.873Z,0.00
2023-11-02T00:44:04.891Z,0.00
2023-11-02T00:45:04.866Z,0.00
2023-11-02T00:46:04.835Z,0.00
2023-11-02T00:47:04.819Z,0.00
2023-11-02T00:48:04.854Z,0.00
2023-11-02T00:49:04.835Z,0.00
2023-11-02T00:50:04.804Z,0.00
2023-11-02T00:51:04.802Z,0.00
2023-11-02T00:52:04.770Z,0.00
2023-11-02T00:53:04.759Z,0.00
2023-11-02T00:54:04.780Z,0.00
2023-11-02T00:55:04.740Z,0.00
2023-11-02T00:56:04.721Z,0.00
2023-11-02T00:57:04.765Z,0.00
2023-11-02T00:58:04.703Z,0.00
2023-11-02T00:59:04.726Z,0.00
2023-11-02T01:00:04.745Z,0.00
2023-11-02T01:01:04.705Z,0.00
2023-11-02T01:02:04.691Z,0.00
2023-11-02T01:03:04.749Z,0.00
2023-11-02T01:04:04.695Z,0.00
2023-11-02T01:05:04.649Z,0.00
2023-11-02T01:06:04.717Z,0.00
2023-11-02T01:07:04.635Z,0.00
2023-11-02T01:08:04.628Z,0.00
2023-11-02T01:09:04.668Z,0.00
2023-11-02T01:10:04.588Z,0.00
2023-11-02T01:11:04.583Z,0.00
2023-11-02T01:12:04.607Z,0.00
2023-11-02T01:13:04.564Z,0.00
2023-11-02T01:14:04.551Z,0.00
2023-11-02T01:15:04.593Z,0.00
2023-11-02T01:16:04.539Z,0.00
2023-11-02T01:17:04.540Z,0.00
2023-11-02T01:18:04.562Z,0.00
2023-11-02T01:19:04.532Z,0.00
2023-11-02T01:20:04.476Z,0.00
2023-11-02T01:21:04.528Z,0.00
2023-11-02T01:22:04.476Z,0.00
2023-11-02T01:23:04.512Z,0.00
2023-11-02T01:24:04.486Z,0.00
2023-11-02T01:25:04.435Z,0.00
2023-11-02T01:26:04.421Z,0.00
2023-11-02T01:27:04.426Z,0.00
2023-11-02T01:28:04.428Z,0.00
2023-11-02T01:29:04.391Z,0.00
2023-11-02T01:30:04.406Z,0.00
2023-11-02T01:31:04.368Z,0.00
2023-11-02T01:32:04.350Z,0.00
2023-11-02T01:33:04.375Z,0.00
2023-11-02T01:34:04.439Z,0.00
2023-11-02T01:35:04.326Z,0.00
2023-11-02T01:36:04.333Z,0.00
2023-11-02T01:37:04.308Z,0.00
2023-11-02T01:38:04.303Z,0.00
2023-11-02T01:39:04.312Z,0.00
2023-11-02T01:40:04.282Z,0.00
2023-11-02T01:41:04.249Z,0.00
2023-11-02T01:42:04.276Z,0.00
2023-11-02T01:43:04.240Z,0.00
2023-11-02T01:44:04.214Z,0.00
2023-11-02T01:45:04.245Z,0.00
2023-11-02T01:46:04.198Z,0.00
2023-11-02T01:47:04.204Z,0.00
2023-11-02T01:48:04.289Z,0.00
2023-11-02T01:49:04.312Z,0.00
2023-11-02T01:50:04.202Z,0.00
2023-11-02T01:51:04.181Z,0.00
2023-11-02T01:52:04.143Z,0.00
2023-11-02T01:53:04.139Z,0.00
2023-11-02T01:54:04.151Z,0.00
2023-11-02T01:55:04.125Z,0.00
2023-11-02T01:56:04.093Z,0.00
2023-11-02T01:57:04.096Z,0.00
2023-11-02T01:58:04.083Z,0.00
2023-11-02T01:59:04.084Z,0.00
2023-11-02T02:00:04.102Z,0.00
2023-11-02T02:01:04.061Z,0.00
2023-11-02T02:02:04.029Z,0.00
2023-11-02T02:03:04.068Z,0.00
2023-11-02T02:04:04.039Z,0.00
2023-11-02T02:05:04.062Z,0.00
2023-11-02T02:06:04.006Z,0.00
2023-11-02T02:07:03.976Z,0.00
2023-11-02T02:08:03.969Z,0.00
2023-11-02T02:09:03.987Z,0.00
2023-11-02T02:10:03.955Z,0.00
2023-11-02T02:11:03.932Z,0.00
2023-11-02T02:12:03.984Z,0.00
2023-11-02T02:13:03.975Z,0.00
2023-11-02T02:14:03.912Z,0.00
2023-11-02T02:15:04.005Z,0.00
2023-11-02T02:16:03.882Z,0.00
2023-11-02T02:17:03.906Z,0.00
2023-11-02T02:18:04.023Z,0.00
2023-11-02T02:19:03.964Z,0.00
2023-11-02T02:20:03.868Z,0.00
2023-11-02T02:21:03.928Z,0.00
2023-11-02T02:22:03.819Z,0.00
2023-11-02T02:23:03.810Z,0.00
2023-11-02T02:24:03.817Z,0.00
2023-11-02T02:25:03.794Z,0.00
2023-11-02T02:26:03.783Z,0.00
2023-11-02T02:27:03.790Z,0.00
2023-11-02T02:28:06.701Z,0.00
2023-11-02T02:29:03.755Z,0.00
2023-11-02T02:30:03.788Z,0.00
2023-11-02T02:31:03.754Z,0.00
2023-11-02T02:32:03.719Z,0.00
2023-11-02T02:33:03.780Z,0.00
2023-11-02T02:34:03.757Z,0.00
2023-11-02T02:35:03.698Z,0.00
2023-11-02T02:36:03.679Z,0.00
2023-11-02T02:37:03.704Z,0.00
2023-11-02T02:38:03.654Z,0.00
2023-11-02T02:39:03.696Z,0.00
2023-11-02T02:40:03.844Z,0.00
2023-11-02T02:41:03.855Z,0.00
2023-11-02T02:42:03.633Z,0.00
2023-11-02T02:43:03.606Z,0.00
2023-11-02T02:44:03.576Z,0.00
2023-11-02T02:45:03.584Z,0.00
2023-11-02T02:46:03.938Z,0.00
2023-11-02T02:47:03.549Z,0.00
2023-11-02T02:48:03.633Z,0.00
2023-11-02T02:49:03.623Z,0.00
2023-11-02T02:50:03.540Z,0.00
2023-11-02T02:51:03.558Z,0.00
2023-11-02T02:52:03.526Z,0.00
2023-11-02T02:53:03.509Z,0.00
2023-11-02T02:54:03.516Z,0.00
2023-11-02T02:55:03.489Z,0.00
2023-11-02T02:56:03.485Z,0.00
2023-11-02T02:57:03.539Z,0.00
2023-11-02T02:58:03.512Z,0.00
2023-11-02T02:59:03.453Z,0.00
2023-11-02T03:00:03.475Z,0.00
2023-11-02T03:01:03.431Z,0.00
2023-11-02T03:02:03.430Z,0.00
2023-11-02T03:03:03.532Z,0.00
2023-11-02T03:04:03.407Z,0.00
2023-11-02T03:05:04.141Z,0.00
2023-11-02T03:06:03.403Z,0.00
2023-11-02T03:07:03.355Z,0.00
2023-11-02T03:08:03.340Z,0.00
2023-11-02T03:09:03.396Z,0.00
2023-11-02T03:10:03.363Z,0.00
2023-11-02T03:11:09.521Z,0.00
2023-11-02T03:12:04.339Z,0.00
2023-11-02T03:13:03.289Z,0.00
2023-11-02T03:14:03.279Z,0.00
2023-11-02T03:15:03.275Z,0.00
2023-11-02T03:16:03.268Z,0.00
2023-11-02T03:17:10.836Z,0.00
2023-11-02T03:18:04.380Z,0.00
2023-11-02T03:19:03.251Z,0.00
2023-11-02T03:20:03.224Z,0.00
2023-11-02T03:21:03.267Z,0.00
2023-11-02T03:22:03.205Z,0.00
2023-11-02T03:23:03.183Z,0.00
2023-11-02T03:24:03.185Z,0.00
2023-11-02T03:25:03.294Z,0.00
2023-11-02T03:26:03.166Z,0.00
2023-11-02T03:27:03.215Z,0.00
2023-11-02T03:28:03.141Z,0.00
2023-11-02T03:29:03.122Z,0.00
2023-11-02T03:30:03.158Z,0.00
2023-11-02T03:31:03.118Z,0.00
2023-11-02T03:32:03.081Z,0.00
2023-11-02T03:33:03.125Z,0.00
2023-11-02T03:34:03.146Z,0.00
2023-11-02T03:35:03.073Z,0.00
2023-11-02T03:36:03.085Z,0.00
2023-11-02T03:37:03.033Z,0.00
2023-11-02T03:38:03.052Z,0.00
2023-11-02T03:39:03.036Z,0.00
2023-11-02T03:40:03.015Z,0.00
2023-11-02T03:41:03.001Z,0.00
2023-11-02T03:42:03.014Z,0.00
2023-11-02T03:43:02.987Z,0.00
2023-11-02T03:44:02.970Z,0.00
2023-11-02T03:45:03.014Z,0.00
2023-11-02T03:46:02.939Z,0.00
2023-11-02T03:47:02.964Z,0.00
2023-11-02T03:48:02.991Z,0.00
2023-11-02T03:49:03.042Z,0.00
2023-11-02T03:50:02.924Z,0.00
2023-11-02T03:51:02.904Z,0.00
2023-11-02T03:52:02.910Z,0.00
2023-11-02T03:53:02.877Z,0.00
2023-11-02T03:54:02.916Z,0.00
2023-11-02T03:55:02.867Z,0.00
2023-11-02T03:56:02.834Z,0.00
2023-11-02T03:57:02.888Z,0.00
2023-11-02T03:58:02.817Z,0.00
2023-11-02T03:59:02.820Z,0.00
2023-11-02T04:00:02.861Z,0.00
2023-11-02T04:01:02.792Z,0.00
2023-11-02T04:02:02.788Z,0.00
2023-11-02T04:03:02.877Z,0.00
2023-11-02T04:04:02.840Z,0.00
2023-11-02T04:05:02.752Z,0.00
2023-11-02T04:06:02.790Z,0.00
2023-11-02T04:07:02.785Z,0.00
2023-11-02T04:08:02.734Z,0.00
2023-11-02T04:09:02.707Z,0.00
2023-11-02T04:10:02.696Z,0.00
2023-11-02T04:11:02.680Z,0.00
2023-11-02T04:12:02.694Z,0.00
2023-11-02T04:13:02.668Z,0.00
2023-11-02T04:14:02.653Z,0.00
2023-11-02T04:15:02.656Z,0.00
2023-11-02T04:16:02.635Z,0.00
2023-11-02T04:17:02.621Z,0.00
2023-11-02T04:18:02.753Z,0.00
2023-11-02T04:19:02.633Z,0.00
2023-11-02T04:20:02.581Z,0.00
2023-11-02T04:21:02.625Z,0.00
2023-11-02T04:22:02.627Z,0.00
2023-11-02T04:23:02.570Z,0.00
2023-11-02T04:24:02.581Z,0.00
2023-11-02T04:25:02.546Z,0.00
2023-11-02T04:26:02.514Z,0.00
2023-11-02T04:27:02.576Z,0.00
2023-11-02T04:28:02.526Z,0.00
2023-11-02T04:29:02.512Z,0.00
2023-11-02T04:30:02.484Z,0.00
2023-11-02T04:31:02.469Z,0.00
2023-11-02T04:32:02.476Z,0.00
2023-11-02T04:33:02.507Z,0.00
2023-11-02T04:34:02.578Z,0.00
2023-11-02T04:35:02.420Z,0.00
2023-11-02T04:36:02.437Z,0.00
2023-11-02T04:37:02.391Z,0.00
2023-11-02T04:38:02.390Z,0.00
2023-11-02T04:39:02.389Z,0.00
2023-11-02T04:40:02.364Z,0.00
2023-11-02T04:41:02.379Z,0.00
2023-11-02T04:42:02.358Z,0.00
2023-11-02T04:43:02.359Z,0.00
2023-11-02T04:44:02.333Z,0.00
2023-11-02T04:45:02.474Z,0.00
2023-11-02T04:46:02.300Z,0.00
2023-11-02T04:47:02.331Z,0.00
2023-11-02T04:48:02.360Z,0.00
2023-11-02T04:49:02.300Z,0.00
2023-11-02T04:50:02.272Z,0.00
2023-11-02T04:51:02.302Z,0.00
2023-11-02T04:52:02.247Z,0.00
2023-11-02T04:53:02.232Z,0.00
2023-11-02T04:54:02.247Z,0.00
2023-11-02T04:55:02.221Z,0.00
2023-11-02T04:56:02.218Z,0.00
2023-11-02T04:57:02.254Z,0.00
2023-11-02T04:58:02.193Z,0.00
2023-11-02T04:59:02.171Z,0.00
2023-11-02T05:00:02.203Z,0.00
2023-11-02T05:01:02.154Z,0.00
2023-11-02T05:02:02.162Z,0.00
2023-11-02T05:03:02.190Z,0.00
2023-11-02T05:04:02.273Z,0.00
2023-11-02T05:05:02.150Z,0.00
2023-11-02T05:06:02.209Z,0.00
2023-11-02T05:07:02.104Z,0.00
2023-11-02T05:08:02.101Z,0.00
2023-11-02T05:09:02.096Z,0.00
2023-11-02T05:10:02.046Z,0.00
2023-11-02T05:11:02.065Z,0.00
2023-11-02T05:12:02.086Z,0.00
2023-11-02T05:13:02.017Z,0.00
2023-11-02T05:14:02.024Z,0.00
2023-11-02T05:15:02.029Z,0.00
2023-11-02T05:16:02.018Z,0.00
2023-11-02T05:17:01.983Z,0.00
2023-11-02T05:18:02.065Z,0.00
2023-11-02T05:19:01.983Z,0.00
2023-11-02T05:20:01.956Z,0.00
2023-11-02T05:21:01.974Z,0.00
2023-11-02T05:22:01.919Z,0.00
2023-11-02T05:23:01.941Z,0.00
2023-11-02T05:24:01.934Z,0.00
2023-11-02T05:25:01.957Z,0.00
2023-11-02T05:26:01.884Z,0.00
2023-11-02T05:27:01.933Z,0.00
2023-11-02T05:28:01.878Z,0.00
2023-11-02T05:29:01.850Z,0.00
2023-11-02T05:30:01.895Z,0.00
2023-11-02T05:31:01.830Z,0.00
2023-11-02T05:32:01.813Z,0.00
2023-11-02T05:33:01.865Z,0.00
2023-11-02T05:34:01.896Z,0.00
2023-11-02T05:35:01.835Z,0.00
2023-11-02T05:36:01.765Z,0.00
2023-11-02T05:37:01.752Z,0.00
2023-11-02T05:38:01.737Z,0.00
2023-11-02T05:39:01.812Z,0.00
2023-11-02T05:40:01.726Z,0.00
2023-11-02T05:41:01.720Z,0.00
2023-11-02T05:42:01.734Z,0.00
2023-11-02T05:43:01.705Z,0.00
2023-11-02T05:44:01.683Z,0.00
2023-11-02T05:45:01.695Z,0.00
2023-11-02T05:46:01.664Z,0.00
2023-11-02T05:47:01.663Z,0.00
2023-11-02T05:48:01.705Z,0.00
2023-11-02T05:49:01.636Z,0.00
2023-11-02T05:50:01.661Z,0.00
2023-11-02T05:51:01.633Z,4.00
2023-11-02T05:52:01.587Z,4.00
2023-11-02T05:53:01.609Z,4.00
2023-11-02T05:54:01.611Z,0.00
2023-11-02T05:55:01.564Z,4.00
2023-11-02T05:56:01.568Z,8.00
2023-11-02T05:57:01.611Z,4.00
2023-11-02T05:58:01.541Z,4.00
2023-11-02T05:59:01.533Z,4.00
2023-11-02T06:00:01.620Z,4.00
2023-11-02T06:01:01.534Z,4.00
2023-11-02T06:02:01.494Z,8.00
2023-11-02T06:03:01.604Z,8.00
2023-11-02T06:04:01.484Z,8.00
2023-11-02T06:05:01.567Z,8.00
2023-11-02T06:06:01.560Z,12.00
2023-11-02T06:07:01.518Z,16.00
2023-11-02T06:08:01.433Z,16.00
2023-11-02T06:09:02.526Z,12.00
2023-11-02T06:10:01.416Z,12.00
2023-11-02T06:11:01.409Z,8.00
2023-11-02T06:12:01.424Z,8.00
2023-11-02T06:13:01.384Z,8.00
2023-11-02T06:14:01.383Z,8.00
2023-11-02T06:15:01.389Z,8.00
2023-11-02T06:16:01.357Z,8.00
2023-11-02T06:17:02.076Z,12.00
2023-11-02T06:18:02.636Z,12.00
2023-11-02T06:19:01.515Z,12.00
2023-11-02T06:20:01.315Z,8.00
2023-11-02T06:21:02.561Z,12.00
2023-11-02T06:22:01.299Z,12.00
2023-11-02T06:23:01.761Z,12.00
2023-11-02T06:24:01.285Z,12.00
2023-11-02T06:25:01.418Z,16.00
2023-11-02T06:26:01.246Z,20.00
2023-11-02T06:27:01.803Z,20.00
2023-11-02T06:28:01.211Z,20.00
2023-11-02T06:29:01.208Z,28.00
2023-11-02T06:30:01.252Z,28.00
2023-11-02T06:31:01.174Z,32.00
2023-11-02T06:32:01.186Z,36.00
2023-11-02T06:33:01.280Z,40.00
2023-11-02T06:34:01.227Z,44.00
2023-11-02T06:35:01.134Z,48.00
2023-11-02T06:36:01.227Z,52.00
2023-11-02T06:37:01.143Z,56.00
2023-11-02T06:38:01.146Z,56.00
2023-11-02T06:39:01.201Z,60.00
2023-11-02T06:40:01.114Z,60.00
2023-11-02T06:41:01.089Z,60.00
2023-11-02T06:42:01.203Z,64.00
2023-11-02T06:43:01.088Z,72.00
2023-11-02T06:44:01.056Z,84.00
2023-11-02T06:45:01.139Z,96.00
2023-11-02T06:46:01.035Z,108.00
2023-11-02T06:47:01.010Z,120.00
2023-11-02T06:48:01.065Z,128.00
2023-11-02T06:49:04.845Z,128.00
2023-11-02T06:50:00.988Z,140.00
2023-11-02T06:51:01.055Z,148.00
2023-11-02T06:52:00.972Z,160.00
2023-11-02T06:53:00.964Z,168.00
2023-11-02T06:54:00.939Z,168.00
2023-11-02T06:55:00.948Z,188.00
2023-11-02T06:56:00.921Z,200.00
2023-11-02T06:57:00.901Z,184.00
2023-11-02T06:58:00.885Z,180.00
2023-11-02T06:59:00.903Z,172.00
2023-11-02T07:00:00.901Z,184.00
2023-11-02T07:01:00.866Z,200.00
2023-11-02T07:02:00.864Z,196.00
2023-11-02T07:03:00.854Z,192.00
2023-11-02T07:04:00.825Z,180.00
2023-11-02T07:05:00.906Z,184.00
2023-11-02T07:06:00.830Z,192.00
2023-11-02T07:07:00.898Z,196.00
2023-11-02T07:08:00.791Z,200.00
2023-11-02T07:09:00.783Z,192.00
2023-11-02T07:10:00.782Z,200.00
2023-11-02T07:11:00.780Z,192.00
2023-11-02T07:12:00.777Z,192.00
2023-11-02T07:13:00.761Z,180.00
2023-11-02T07:14:00.732Z,172.00
2023-11-02T07:15:00.723Z,172.00
2023-11-02T07:16:00.703Z,172.00
2023-11-02T07:17:00.718Z,168.00
2023-11-02T07:18:00.741Z,172.00
2023-11-02T07:19:00.756Z,180.00
2023-11-02T07:20:00.661Z,180.00
2023-11-02T07:21:00.664Z,188.00
2023-11-02T07:22:00.639Z,200.00
2023-11-02T07:23:00.644Z,212.00
2023-11-02T07:24:00.623Z,236.00
2023-11-02T07:25:00.623Z,264.00
2023-11-02T07:26:00.620Z,300.00
2023-11-02T07:27:00.591Z,320.00
2023-11-02T07:28:00.575Z,348.00
2023-11-02T07:29:00.573Z,368.00
2023-11-02T07:30:00.640Z,368.00
2023-11-02T07:31:00.558Z,392.00
2023-11-02T07:32:00.537Z,412.00
2023-11-02T07:33:00.605Z,440.00
2023-11-02T07:34:00.585Z,436.00
2023-11-02T07:35:00.498Z,440.00
2023-11-02T07:36:01.595Z,460.00
2023-11-02T07:37:00.523Z,460.00
2023-11-02T07:38:00.460Z,424.00
2023-11-02T07:39:00.464Z,416.00
2023-11-02T07:40:00.479Z,440.00
2023-11-02T07:41:00.454Z,472.00
2023-11-02T07:42:00.429Z,476.00
2023-11-02T07:43:00.425Z,472.00
2023-11-02T07:44:00.408Z,528.00
2023-11-02T07:45:00.411Z,568.00
2023-11-02T07:46:00.388Z,536.00
2023-11-02T07:47:00.372Z,592.00
2023-11-02T07:48:00.388Z,696.00
2023-11-02T07:49:00.522Z,668.00
2023-11-02T07:50:00.350Z,660.00
2023-11-02T07:51:00.350Z,700.00
2023-11-02T07:52:00.347Z,784.00
2023-11-02T07:53:00.343Z,832.00
2023-11-02T07:54:00.300Z,812.00
2023-11-02T07:55:00.324Z,880.00
2023-11-02T07:56:00.291Z,1040.00
2023-11-02T07:57:00.284Z,1096.00
2023-11-02T07:58:00.266Z,1068.00
2023-11-02T07:59:00.320Z,1016.00
2023-11-02T08:00:00.438Z,964.00
2023-11-02T08:01:00.236Z,936.00
2023-11-02T08:02:00.217Z,940.00
2023-11-02T08:03:00.204Z,908.00
2023-11-02T08:04:00.285Z,856.00
2023-11-02T08:05:00.286Z,1004.00
2023-11-02T08:06:00.248Z,1132.00
2023-11-02T08:07:00.299Z,1132.00
2023-11-02T08:08:00.161Z,984.00
2023-11-02T08:09:00.159Z,820.00
2023-11-02T08:10:00.232Z,816.00
2023-11-02T08:11:00.125Z,808.00
2023-11-02T08:12:00.341Z,824.00
2023-11-02T08:13:00.088Z,864.00
2023-11-02T08:14:00.085Z,808.00
2023-11-02T08:15:01.083Z,788.00
2023-11-02T08:16:00.086Z,756.00
2023-11-02T08:17:00.778Z,716.00
2023-11-02T08:18:00.152Z,760.00
2023-11-02T08:19:00.930Z,928.00
2023-11-02T08:20:00.358Z,944.00
2023-11-02T08:21:01.013Z,856.00
2023-11-02T08:22:00.037Z,840.00
2023-11-02T08:23:00.974Z,772.00
2023-11-02T08:23:59.998Z,784.00
2023-11-02T08:25:00.291Z,884.00
2023-11-02T08:25:59.958Z,1152.00
2023-11-02T08:27:00.055Z,1128.00
2023-11-02T08:27:59.959Z,964.00
2023-11-02T08:29:00.412Z,920.00
2023-11-02T08:29:59.945Z,1004.00
2023-11-02T08:31:00.618Z,1056.00
2023-11-02T08:31:59.905Z,1100.00
2023-11-02T08:33:00.640Z,1092.00
2023-11-02T08:34:03.145Z,1056.00
2023-11-02T08:34:59.871Z,976.00
2023-11-02T08:35:59.893Z,952.00
2023-11-02T08:36:59.869Z,940.00
2023-11-02T08:37:59.840Z,872.00
2023-11-02T08:38:59.843Z,832.00
2023-11-02T08:39:59.811Z,908.00
2023-11-02T08:40:59.833Z,920.00
2023-11-02T08:41:59.809Z,888.00
2023-11-02T08:42:59.783Z,856.00
2023-11-02T08:43:59.806Z,836.00
2023-11-02T08:44:59.758Z,840.00
2023-11-02T08:45:59.765Z,860.00
2023-11-02T08:46:59.755Z,876.00
2023-11-02T08:47:59.776Z,916.00
2023-11-02T08:48:59.729Z,968.00
2023-11-02T08:49:59.707Z,1036.00
2023-11-02T08:50:59.708Z,1084.00
2023-11-02T08:51:59.693Z,1144.00
2023-11-02T08:52:59.710Z,1168.00
2023-11-02T08:53:59.670Z,1204.00
2023-11-02T08:54:59.671Z,1212.00
2023-11-02T08:55:59.642Z,1220.00
2023-11-02T08:56:59.628Z,1212.00
2023-11-02T08:57:59.667Z,1236.00
2023-11-02T08:58:59.602Z,1248.00
2023-11-02T09:00:01.724Z,1316.00
2023-11-02T09:00:59.584Z,1252.00
2023-11-02T09:01:59.575Z,1056.00
2023-11-02T09:02:59.577Z,988.00
2023-11-02T09:03:59.564Z,920.00
2023-11-02T09:04:59.553Z,768.00
2023-11-02T09:05:59.581Z,796.00
2023-11-02T09:06:59.537Z,864.00
2023-11-02T09:07:59.521Z,1076.00
2023-11-02T09:08:59.530Z,1260.00
2023-11-02T09:09:59.498Z,1380.00
2023-11-02T09:10:59.491Z,1516.00
2023-11-02T09:11:59.475Z,1604.00
2023-11-02T09:12:59.457Z,1692.00
2023-11-02T09:13:59.511Z,2064.00
2023-11-02T09:14:59.459Z,2308.00
2023-11-02T09:15:59.438Z,2700.00
2023-11-02T09:16:59.414Z,2624.00
2023-11-02T09:17:59.447Z,2240.00
2023-11-02T09:18:59.908Z,1888.00
2023-11-02T09:19:59.383Z,1440.00
2023-11-02T09:20:59.371Z,1228.00
2023-11-02T09:21:59.496Z,1156.00
2023-11-02T09:22:59.359Z,1112.00
2023-11-02T09:23:59.340Z,1104.00
2023-11-02T09:24:59.447Z,1136.00
2023-11-02T09:25:59.341Z,1136.00
2023-11-02T09:26:59.317Z,1096.00
2023-11-02T09:27:59.301Z,1148.00
2023-11-02T09:28:59.310Z,1224.00
2023-11-02T09:29:59.286Z,1188.00
2023-11-02T09:30:59.257Z,1268.00
2023-11-02T09:32:03.928Z,1276.00
2023-11-02T09:33:00.265Z,1308.00
2023-11-02T09:33:59.325Z,1176.00
2023-11-02T09:34:59.251Z,1084.00
2023-11-02T09:35:59.233Z,1028.00
2023-11-02T09:36:59.200Z,936.00
2023-11-02T09:37:59.224Z,944.00
2023-11-02T09:38:59.193Z,996.00
2023-11-02T09:39:59.198Z,1032.00
2023-11-02T09:40:59.162Z,1064.00
2023-11-02T09:41:59.150Z,1112.00
2023-11-02T09:42:59.143Z,1336.00
2023-11-02T09:43:59.150Z,1452.00
2023-11-02T09:44:59.118Z,1464.00
2023-11-02T09:45:59.111Z,1524.00
2023-11-02T09:46:59.094Z,1636.00
2023-11-02T09:47:59.125Z,1648.00
2023-11-02T09:48:59.183Z,1680.00
2023-11-02T09:49:59.062Z,1740.00
2023-11-02T09:50:59.053Z,1752.00
2023-11-02T09:51:59.046Z,1748.00
2023-11-02T09:53:00.610Z,1696.00
2023-11-02T09:53:59.030Z,1644.00
2023-11-02T09:54:59.133Z,1624.00
2023-11-02T09:55:59.043Z,1656.00
2023-11-02T09:56:58.988Z,1720.00
2023-11-02T09:57:58.981Z,1796.00
2023-11-02T09:58:58.960Z,1816.00
2023-11-02T09:59:58.967Z,1828.00
2023-11-02T10:00:58.940Z,1840.00
2023-11-02T10:01:58.957Z,1864.00
2023-11-02T10:02:58.965Z,1880.00
2023-11-02T10:03:58.927Z,1896.00
2023-11-02T10:04:58.895Z,1920.00
2023-11-02T10:05:58.949Z,1952.00
2023-11-02T10:06:58.881Z,1976.00
2023-11-02T10:07:58.874Z,2008.00
2023-11-02T10:08:58.856Z,2040.00
2023-11-02T10:09:58.851Z,2068.00
2023-11-02T10:10:58.861Z,2084.00
2023-11-02T10:11:58.822Z,2136.00
2023-11-02T10:12:58.928Z,2184.00
2023-11-02T10:13:58.823Z,2196.00
2023-11-02T10:14:58.841Z,2220.00
2023-11-02T10:16:03.189Z,2316.00
2023-11-02T10:16:58.787Z,2484.00
2023-11-02T10:17:58.899Z,2660.00
2023-11-02T10:18:58.807Z,2740.00
2023-11-02T10:19:58.795Z,2740.00
2023-11-02T10:20:58.729Z,2656.00
2023-11-02T10:21:58.757Z,2524.00
2023-11-02T10:22:58.714Z,2376.00
2023-11-02T10:23:58.714Z,2288.00
2023-11-02T10:24:58.682Z,2252.00
2023-11-02T10:25:58.677Z,2224.00
2023-11-02T10:26:58.701Z,2208.00
2023-11-02T10:27:58.679Z,2184.00
2023-11-02T10:28:58.691Z,2196.00
2023-11-02T10:29:58.640Z,2276.00
2023-11-02T10:30:58.782Z,2360.00
2023-11-02T10:31:58.626Z,2460.00
2023-11-02T10:32:58.666Z,2536.00
2023-11-02T10:33:58.635Z,2568.00
2023-11-02T10:34:58.620Z,2552.00
2023-11-02T10:35:58.562Z,2532.00
2023-11-02T10:36:58.620Z,2528.00
2023-11-02T10:37:58.541Z,2500.00
2023-11-02T10:38:58.523Z,2420.00
2023-11-02T10:39:58.521Z,2380.00
2023-11-02T10:40:58.532Z,2472.00
2023-11-02T10:41:58.545Z,2704.00
2023-11-02T10:42:58.499Z,2984.00
2023-11-02T10:43:58.491Z,3164.00
2023-11-02T10:44:58.485Z,3244.00
2023-11-02T10:45:58.591Z,3420.00
2023-11-02T10:46:59.010Z,3704.00
2023-11-02T10:47:58.459Z,3880.00
2023-11-02T10:48:58.463Z,3724.00
2023-11-02T10:49:58.425Z,3392.00
2023-11-02T10:50:58.510Z,3144.00
2023-11-02T10:51:58.432Z,3012.00
2023-11-02T10:52:59.252Z,2832.00
2023-11-02T10:53:58.380Z,2624.00
2023-11-02T10:54:58.361Z,2488.00
2023-11-02T10:55:58.364Z,2372.00
2023-11-02T10:56:58.367Z,2264.00
2023-11-02T10:57:58.345Z,2192.00
2023-11-02T10:58:58.323Z,2076.00
2023-11-02T10:59:58.320Z,1828.00
2023-11-02T11:00:58.302Z,1668.00
2023-11-02T11:01:58.324Z,1664.00
2023-11-02T11:02:58.345Z,1756.00
2023-11-02T11:03:58.301Z,1904.00
2023-11-02T11:04:59.460Z,2104.00
2023-11-02T11:05:58.305Z,2332.00
2023-11-02T11:06:58.350Z,2456.00
2023-11-02T11:07:58.253Z,2448.00
2023-11-02T11:08:58.216Z,2356.00
2023-11-02T11:09:58.209Z,2248.00
2023-11-02T11:10:58.187Z,2116.00
2023-11-02T11:11:58.184Z,1972.00
2023-11-02T11:12:58.174Z,1884.00
2023-11-02T11:13:58.163Z,1860.00
2023-11-02T11:14:58.181Z,1904.00
2023-11-02T11:15:58.148Z,1992.00
2023-11-02T11:16:58.120Z,2136.00
2023-11-02T11:17:58.130Z,2364.00
2023-11-02T11:18:58.231Z,2692.00
2023-11-02T11:19:58.086Z,3100.00
2023-11-02T11:20:58.129Z,3428.00
2023-11-02T11:21:58.070Z,3504.00
2023-11-02T11:22:58.057Z,3260.00
2023-11-02T11:23:58.064Z,2792.00
2023-11-02T11:24:58.046Z,2268.00
2023-11-02T11:25:58.046Z,1956.00
2023-11-02T11:26:58.026Z,1876.00
2023-11-02T11:27:58.014Z,1864.00
2023-11-02T11:28:58.004Z,1848.00
2023-11-02T11:29:57.995Z,1856.00
2023-11-02T11:30:57.978Z,1860.00
2023-11-02T11:31:58.000Z,1884.00
2023-11-02T11:32:57.961Z,1864.00
2023-11-02T11:33:57.950Z,1832.00
2023-11-02T11:34:57.974Z,1804.00
2023-11-02T11:35:57.939Z,1772.00
2023-11-02T11:36:57.984Z,1680.00
2023-11-02T11:37:57.905Z,1588.00
2023-11-02T11:38:57.913Z,1580.00
2023-11-02T11:39:57.936Z,1652.00
2023-11-02T11:40:57.862Z,1728.00
2023-11-02T11:41:57.855Z,1768.00
2023-11-02T11:42:57.870Z,1720.00
2023-11-02T11:43:57.850Z,1644.00
2023-11-02T11:44:57.822Z,1568.00
2023-11-02T11:45:57.840Z,1516.00
2023-11-02T11:46:57.805Z,1492.00
2023-11-02T11:47:57.932Z,1504.00
2023-11-02T11:48:57.860Z,1528.00
2023-11-02T11:49:57.841Z,1560.00
2023-11-02T11:50:58.654Z,1644.00
2023-11-02T11:51:57.794Z,1736.00
2023-11-02T11:52:57.743Z,1804.00
2023-11-02T11:53:57.753Z,1912.00
2023-11-02T11:54:57.805Z,1992.00
2023-11-02T11:55:57.730Z,2048.00
2023-11-02T11:56:57.709Z,2092.00
2023-11-02T11:57:57.712Z,1980.00
2023-11-02T11:59:00.189Z,1672.00
2023-11-02T11:59:57.678Z,1404.00
2023-11-02T12:00:57.673Z,1316.00
2023-11-02T12:01:57.661Z,1348.00
2023-11-02T12:02:58.460Z,1404.00
2023-11-02T12:03:57.665Z,1468.00
2023-11-02T12:04:58.973Z,1600.00
2023-11-02T12:05:57.626Z,1720.00
2023-11-02T12:06:57.667Z,1784.00
2023-11-02T12:07:57.594Z,1836.00
2023-11-02T12:08:57.579Z,1832.00
2023-11-02T12:09:57.674Z,1836.00
2023-11-02T12:10:57.579Z,1800.00
2023-11-02T12:11:57.545Z,1672.00
2023-11-02T12:12:57.557Z,1508.00
2023-11-02T12:13:57.565Z,1412.00
2023-11-02T12:14:57.519Z,1452.00
2023-11-02T12:15:57.528Z,1544.00
2023-11-02T12:16:57.494Z,1616.00
2023-11-02T12:17:58.257Z,1604.00
2023-11-02T12:18:57.548Z,1548.00
2023-11-02T12:19:57.489Z,1516.00
2023-11-02T12:20:57.475Z,1508.00
2023-11-02T12:21:57.467Z,1576.00
2023-11-02T12:22:57.429Z,1604.00
2023-11-02T12:23:57.415Z,1572.00
2023-11-02T12:24:57.487Z,1480.00
2023-11-02T12:25:57.403Z,1352.00
2023-11-02T12:26:57.393Z,1232.00
2023-11-02T12:27:57.383Z,1136.00
2023-11-02T12:28:57.372Z,1040.00
2023-11-02T12:29:57.342Z,968.00
2023-11-02T12:30:57.370Z,980.00
2023-11-02T12:31:57.319Z,1128.00
2023-11-02T12:32:57.360Z,1292.00
2023-11-02T12:33:57.337Z,1444.00
2023-11-02T12:34:57.441Z,1484.00
2023-11-02T12:35:57.293Z,1436.00
2023-11-02T12:36:57.346Z,1336.00
2023-11-02T12:37:57.257Z,1308.00
2023-11-02T12:38:57.582Z,1308.00
2023-11-02T12:39:57.344Z,1352.00
2023-11-02T12:40:57.263Z,1436.00
2023-11-02T12:41:58.086Z,1496.00
2023-11-02T12:42:57.205Z,1504.00
2023-11-02T12:43:57.203Z,1568.00
2023-11-02T12:44:57.220Z,1716.00